Time;durP1;ratioP1;P1;durP2;ratioP2;P2;SDS_P1;SDS_P2;PMS_P1;PMS_P2;Temp;Humidity;BMP_temperature;BMP_pressure;BME280_temperature;BME280_humidity;BME280_pressure;Samples;Min_cycle;Max_cycle;Signal;HPM_P1;HPM_P2
2022/06/20 00:00:21;;;;;;;8.18;5.55;;;24.50;59.80;;;;;;5034277;28;20033;-78
2022/06/20 00:02:50;;;;;;;6.65;5.50;;;24.60;59.50;;;;;;5015908;28;20051;-77
2022/06/20 00:05:21;;;;;;;7.13;5.18;;;24.60;59.60;;;;;;5034193;28;20444;-80
2022/06/20 00:07:48;;;;;;;6.70;4.80;;;24.60;59.80;;;;;;5015998;28;20027;-77
2022/06/20 00:10:15;;;;;;;5.57;4.90;;;24.50;60.20;;;;;;5034309;28;20035;-80
2022/06/20 00:12:42;;;;;;;5.65;5.05;;;24.60;59.40;;;;;;5015656;28;20051;-78
2022/06/20 00:15:11;;;;;;;6.22;5.25;;;24.60;59.50;;;;;;5011070;28;20096;-77
2022/06/20 00:17:37;;;;;;;6.03;5.25;;;24.50;59.50;;;;;;5006433;28;20052;-75
2022/06/20 00:20:03;;;;;;;7.90;5.13;;;24.60;59.30;;;;;;5016006;28;20496;-78
2022/06/20 00:22:29;;;;;;;6.82;4.60;;;24.40;59.40;;;;;;5016379;28;20032;-77
2022/06/20 00:24:55;;;;;;;5.88;4.55;;;24.10;60.50;;;;;;5031964;28;20025;-80
2022/06/20 00:27:20;;;;;;;7.50;4.57;;;24.00;60.70;;;;;;5015541;28;20022;-77
2022/06/20 00:29:48;;;;;;;6.85;4.70;;;23.90;61.10;;;;;;5015696;28;20029;-77
2022/06/20 00:32:14;;;;;;;6.18;4.60;;;24.00;60.50;;;;;;5015803;28;20504;-78
2022/06/20 00:34:39;;;;;;;7.35;4.85;;;24.20;60.50;;;;;;5014696;28;20043;-81
2022/06/20 00:37:08;;;;;;;6.53;4.55;;;24.30;59.70;;;;;;5016439;28;20025;-78
2022/06/20 00:39:34;;;;;;;6.22;4.45;;;24.20;60.40;;;;;;5015862;28;20120;-78
2022/06/20 00:42:01;;;;;;;7.38;4.68;;;24.30;60.10;;;;;;5033671;28;20156;-79
2022/06/20 00:44:39;;;;;;;6.95;4.53;;;24.50;59.70;;;;;;5031869;28;20025;-78
2022/06/20 00:47:14;;;;;;;5.78;4.40;;;24.50;59.50;;;;;;5033343;28;20025;-77
2022/06/20 00:49:56;;;;;;;7.75;4.53;;;24.70;59.10;;;;;;5015439;28;20026;-77
2022/06/20 00:52:35;;;;;;;6.15;4.47;;;24.70;58.80;;;;;;5014959;28;20030;-77
2022/06/20 00:55:31;;;;;;;6.15;4.50;;;24.70;58.80;;;;;;5015428;28;20030;-76
2022/06/20 00:58:15;;;;;;;6.18;4.65;;;24.40;58.80;;;;;;5008369;28;20047;-76
2022/06/20 01:00:41;;;;;;;6.00;5.10;;;24.50;59.00;;;;;;5013532;28;20038;-78
2022/06/20 01:03:27;;;;;;;5.78;4.60;;;24.30;59.10;;;;;;5033191;28;20026;-75
2022/06/20 01:05:58;;;;;;;7.78;4.88;;;24.10;59.70;;;;;;5032821;28;20025;-78
2022/06/20 01:08:45;;;;;;;6.00;4.45;;;24.00;59.70;;;;;;5014318;28;20045;-76
2022/06/20 01:11:26;;;;;;;6.28;5.00;;;23.90;59.80;;;;;;5033434;28;20032;-78
2022/06/20 01:13:53;;;;;;;6.00;4.57;;;23.60;60.90;;;;;;5015356;28;20088;-78
2022/06/20 01:16:21;;;;;;;6.85;4.60;;;23.60;60.80;;;;;;5015476;28;20135;-79
2022/06/20 01:18:49;;;;;;;7.22;4.68;;;23.70;61.00;;;;;;5014502;28;20526;-76
2022/06/20 01:21:22;;;;;;;6.88;4.63;;;23.80;60.60;;;;;;5014562;28;20044;-77
2022/06/20 01:23:58;;;;;;;5.95;4.50;;;23.90;60.00;;;;;;5015132;28;20063;-75
2022/06/20 01:26:44;;;;;;;7.00;4.78;;;23.90;59.80;;;;;;5014927;28;20022;-76
2022/06/20 01:29:11;;;;;;;10.65;5.68;;;23.70;59.90;;;;;;4970653;28;20042;-78
2022/06/20 01:31:45;;;;;;;6.32;4.93;;;23.70;60.20;;;;;;4955568;28;20530;-77
2022/06/20 01:34:14;;;;;;;6.88;5.05;;;23.80;60.40;;;;;;4955569;28;20041;-77
2022/06/20 01:39:26;;;;;;;7.05;5.30;;;23.70;60.30;;;;;;4971168;28;20046;-77
2022/06/20 01:44:42;;;;;;;7.70;5.43;;;23.80;60.50;;;;;;4972208;28;20058;-78
2022/06/20 01:47:08;;;;;;;8.05;4.95;;;23.20;61.60;;;;;;4988109;28;20126;-77
2022/06/20 01:49:35;;;;;;;6.13;4.82;;;23.40;61.90;;;;;;4970906;28;20113;-75
2022/06/20 01:52:00;;;;;;;6.60;5.00;;;23.60;60.80;;;;;;4971482;28;20402;-76
2022/06/20 01:54:32;;;;;;;6.78;4.72;;;23.70;59.90;;;;;;4971706;28;20489;-77
2022/06/20 01:56:58;;;;;;;5.90;4.72;;;23.60;60.00;;;;;;4955734;28;20023;-77
2022/06/20 01:59:36;;;;;;;7.93;5.60;;;23.40;60.80;;;;;;4954705;28;20038;-78
2022/06/20 02:02:03;;;;;;;7.72;5.70;;;23.40;61.10;;;;;;4970795;28;20393;-78
2022/06/20 02:04:33;;;;;;;7.18;5.15;;;23.30;61.20;;;;;;4955255;28;20374;-78
2022/06/20 02:07:02;;;;;;;7.03;5.60;;;23.50;60.80;;;;;;4987260;28;20528;-75
2022/06/20 02:09:28;;;;;;;7.15;5.30;;;23.50;60.20;;;;;;5008433;28;20484;-78
2022/06/20 02:11:54;;;;;;;7.35;5.05;;;23.50;60.40;;;;;;5032284;28;20076;-78
2022/06/20 02:14:37;;;;;;;9.15;5.38;;;23.40;61.20;;;;;;5012876;28;20021;-76
2022/06/20 02:17:23;;;;;;;9.18;6.15;;;23.20;60.80;;;;;;5047552;28;20026;-78
2022/06/20 02:19:53;;;;;;;6.05;5.20;;;23.30;61.10;;;;;;5012359;28;20496;-75
2022/06/20 02:22:20;;;;;;;7.57;5.35;;;23.20;60.70;;;;;;5032373;28;20551;-77
2022/06/20 02:24:50;;;;;;;7.22;5.75;;;23.10;60.70;;;;;;5031444;28;20037;-78
2022/06/20 02:27:26;;;;;;;7.93;5.40;;;23.10;61.20;;;;;;5014336;28;20025;-77
2022/06/20 02:29:51;;;;;;;6.78;5.47;;;23.20;60.80;;;;;;5013152;28;20037;-78
2022/06/20 02:32:30;;;;;;;6.50;5.50;;;23.30;60.50;;;;;;5029949;28;20046;-79
2022/06/20 02:34:55;;;;;;;8.88;5.95;;;23.10;61.60;;;;;;5014736;28;20388;-78
2022/06/20 02:37:26;;;;;;;7.35;5.55;;;23.10;61.30;;;;;;5015451;28;20030;-78
2022/06/20 02:40:03;;;;;;;7.00;5.28;;;23.20;60.70;;;;;;5016860;28;20516;-78
2022/06/20 02:42:33;;;;;;;6.85;6.07;;;23.30;60.00;;;;;;5017887;28;20061;-78
2022/06/20 02:45:01;;;;;;;6.90;5.05;;;23.40;60.10;;;;;;5004667;28;20083;-77
2022/06/20 02:47:28;;;;;;;7.05;5.30;;;23.50;59.70;;;;;;5015809;28;20037;-77
2022/06/20 02:49:58;;;;;;;7.50;5.15;;;23.30;60.60;;;;;;4999548;28;20036;-76
2022/06/20 02:52:33;;;;;;;6.97;5.70;;;23.00;60.20;;;;;;5034286;28;20029;-76
2022/06/20 02:55:00;;;;;;;6.55;5.10;;;22.70;60.70;;;;;;5035632;28;20025;-78
2022/06/20 02:57:40;;;;;;;5.97;4.85;;;22.70;61.50;;;;;;5017685;28;20022;-78
2022/06/20 03:00:13;;;;;;;7.13;4.93;;;22.40;62.40;;;;;;5016595;28;20523;-78
2022/06/20 03:02:42;;;;;;;6.22;5.20;;;22.20;63.40;;;;;;5002103;28;20034;-78
2022/06/20 03:05:08;;;;;;;6.72;5.40;;;22.40;62.70;;;;;;5034207;28;20373;-77
2022/06/20 03:07:37;;;;;;;7.97;5.30;;;22.60;61.80;;;;;;5017159;28;20485;-78
2022/06/20 03:10:24;;;;;;;9.07;5.53;;;22.70;61.20;;;;;;5014956;28;20538;-78
2022/06/20 03:12:51;;;;;;;6.93;5.78;;;22.80;61.40;;;;;;5016098;28;20026;-78
2022/06/20 03:15:17;;;;;;;5.75;5.03;;;22.90;61.20;;;;;;5033899;28;20039;-78
2022/06/20 03:17:45;;;;;;;6.25;5.47;;;23.00;61.00;;;;;;5047683;28;20018;-79
2022/06/20 03:20:14;;;;;;;7.47;5.68;;;22.90;60.80;;;;;;5015692;28;20060;-79
2022/06/20 03:22:52;;;;;;;7.70;5.90;;;23.00;60.80;;;;;;5016631;28;20080;-77
2022/06/20 03:25:19;;;;;;;9.02;5.60;;;23.10;60.70;;;;;;5050709;28;20021;-78
2022/06/20 03:27:45;;;;;;;8.20;5.60;;;23.00;61.50;;;;;;5033632;28;20376;-77
2022/06/20 03:30:31;;;;;;;7.97;6.15;;;23.00;61.20;;;;;;5035048;28;20464;-77
2022/06/20 03:32:59;;;;;;;9.85;5.53;;;22.90;61.40;;;;;;5017012;28;20132;-78
2022/06/20 03:35:30;;;;;;;8.48;5.85;;;22.90;61.60;;;;;;5035458;28;20024;-77
2022/06/20 03:37:57;;;;;;;5.97;5.07;;;23.10;61.20;;;;;;5016411;28;20024;-78
2022/06/20 03:40:23;;;;;;;7.75;5.35;;;22.80;62.40;;;;;;5016713;28;20042;-79
2022/06/20 03:42:49;;;;;;;6.53;5.57;;;22.80;62.60;;;;;;5033834;28;20391;-79
2022/06/20 03:45:15;;;;;;;6.80;5.18;;;23.00;62.00;;;;;;5034599;28;20381;-79
2022/06/20 03:48:01;;;;;;;6.50;5.63;;;23.40;61.20;;;;;;5015969;28;20375;-80
2022/06/20 03:50:42;;;;;;;7.65;5.70;;;23.60;61.10;;;;;;5033694;28;20400;-78
2022/06/20 03:53:28;;;;;;;7.47;5.55;;;24.00;60.50;;;;;;5034399;28;20522;-78
2022/06/20 03:56:15;;;;;;;7.35;5.57;;;24.10;60.40;;;;;;5034548;28;20034;-79
2022/06/20 03:58:48;;;;;;;7.60;5.82;;;24.20;60.10;;;;;;5033131;28;20018;-79
2022/06/20 04:01:37;;;;;;;9.10;6.85;;;24.30;60.40;;;;;;5016409;28;20519;-77
2022/06/20 04:04:05;;;;;;;10.10;5.60;;;24.40;60.10;;;;;;5034277;28;20022;-80
2022/06/20 04:06:39;;;;;;;8.10;5.70;;;24.50;59.80;;;;;;5015543;28;20116;-80
2022/06/20 04:12:10;;;;;;;8.73;5.53;;;24.80;59.50;;;;;;5034099;28;20479;-78
2022/06/20 04:15:01;;;;;;;8.15;5.47;;;24.90;59.90;;;;;;5015387;28;20496;-78
2022/06/20 04:20:51;;;;;;;7.30;4.85;;;25.20;59.30;;;;;;5014232;28;20551;-79
2022/06/20 04:23:29;;;;;;;6.65;4.85;;;25.40;58.80;;;;;;4996985;28;20025;-83
2022/06/20 04:26:04;;;;;;;8.85;4.63;;;25.50;57.10;;;;;;4999274;28;20026;-81
2022/06/20 04:28:41;;;;;;;7.40;4.50;;;24.70;58.80;;;;;;5016083;28;20029;-89
2022/06/20 04:31:22;;;;;;;11.25;5.25;;;24.00;59.80;;;;;;5015969;28;20392;-79
2022/06/20 04:33:54;;;;;;;5.78;4.13;;;24.00;60.80;;;;;;5016087;28;20025;-80
2022/06/20 04:36:33;;;;;;;7.55;4.45;;;24.60;59.80;;;;;;5014787;28;20087;-77
2022/06/20 04:39:13;;;;;;;6.80;4.70;;;25.10;59.00;;;;;;5033820;28;20380;-79
2022/06/20 04:41:49;;;;;;;6.53;4.78;;;25.50;58.40;;;;;;5033711;28;20033;-79
2022/06/20 04:44:27;;;;;;;7.32;4.43;;;25.80;57.60;;;;;;5016042;28;20361;-80
2022/06/20 04:47:28;;;;;;;5.70;4.35;;;26.10;57.30;;;;;;5031991;28;20057;-79
2022/06/20 04:49:54;;;;;;;6.47;4.30;;;26.50;56.90;;;;;;5015883;28;20381;-80
2022/06/20 04:52:25;;;;;;;8.85;4.35;;;26.60;56.70;;;;;;5033863;28;20468;-80
2022/06/20 04:54:51;;;;;;;;;;;26.10;57.20;;;;;;5033590;28;20044;-83
2022/06/20 04:57:16;;;;;;;7.28;4.80;;;25.90;57.60;;;;;;5048863;28;19905;-79
2022/06/20 04:59:43;;;;;;;8.52;4.57;;;25.80;58.70;;;;;;5033156;28;20120;-87
2022/06/20 05:02:19;;;;;;;6.72;4.43;;;25.90;57.70;;;;;;5016408;28;20075;-79
2022/06/20 05:04:50;;;;;;;8.50;4.32;;;25.70;58.30;;;;;;5014722;28;20116;-81
2022/06/20 05:07:24;;;;;;;6.45;4.00;;;25.90;57.50;;;;;;5015661;28;20029;-79
2022/06/20 05:10:16;;;;;;;7.38;4.47;;;26.00;57.80;;;;;;5012887;28;20037;-77
2022/06/20 05:13:15;;;;;;;5.43;4.22;;;26.50;57.70;;;;;;5031892;28;20060;-81
2022/06/20 05:15:43;;;;;;;7.32;4.20;;;26.70;57.10;;;;;;5015954;28;20036;-80
2022/06/20 05:18:28;;;;;;;5.70;4.00;;;26.50;57.40;;;;;;5033961;28;20055;-81
2022/06/20 05:21:10;;;;;;;7.55;4.22;;;26.10;58.20;;;;;;5016386;28;20123;-82
2022/06/20 05:23:44;;;;;;;6.25;4.15;;;25.50;58.80;;;;;;5014545;28;20075;-87
2022/06/20 05:26:27;;;;;;;5.22;3.97;;;25.30;58.80;;;;;;5033115;28;20036;-81
2022/06/20 05:28:56;;;;;;;6.75;4.40;;;25.70;58.60;;;;;;5033480;28;20092;-80
2022/06/20 05:31:35;;;;;;;6.15;4.10;;;26.20;58.10;;;;;;5010072;28;20040;-78
2022/06/20 05:34:23;;;;;;;8.80;4.53;;;26.80;57.80;;;;;;5005484;28;20030;-78
2022/06/20 05:37:12;;;;;;;9.68;4.25;;;26.60;57.80;;;;;;4996215;28;20030;-77
2022/06/20 05:39:44;;;;;;;5.13;4.00;;;26.40;58.80;;;;;;5016198;28;20459;-78
2022/06/20 05:42:16;;;;;;;6.68;4.32;;;26.90;57.90;;;;;;5025986;28;20476;-79
2022/06/20 05:44:42;;;;;;;5.60;3.92;;;27.60;57.40;;;;;;5035407;28;20052;-88
2022/06/20 05:47:32;;;;;;;6.93;4.57;;;28.00;55.50;;;;;;5035105;28;20386;-78
2022/06/20 05:50:28;;;;;;;5.85;4.15;;;27.60;57.20;;;;;;5024775;28;20040;-78
2022/06/20 05:52:55;;;;;;;10.35;3.88;;;28.00;56.00;;;;;;5035253;28;20036;-81
2022/06/20 05:55:25;;;;;;;9.77;4.07;;;28.40;55.50;;;;;;5035033;28;20033;-84
2022/06/20 05:57:53;;;;;;;18.88;4.15;;;28.00;55.70;;;;;;5002818;28;20511;-77
2022/06/20 06:00:20;;;;;;;7.07;3.90;;;28.20;54.60;;;;;;5032525;28;20172;-80
2022/06/20 06:02:52;;;;;;;6.72;3.80;;;28.90;54.50;;;;;;5017781;28;20080;-78
2022/06/20 06:05:47;;;;;;;5.75;3.75;;;29.40;53.30;;;;;;5007960;28;20030;-78
2022/06/20 06:08:44;;;;;;;6.38;3.40;;;30.10;52.60;;;;;;5015442;28;20053;-87
2022/06/20 06:11:29;;;;;;;5.53;3.60;;;29.80;51.80;;;;;;5026242;28;20037;-83
2022/06/20 06:14:06;;;;;;;6.57;3.83;;;29.20;52.80;;;;;;5017090;28;20027;-82
2022/06/20 06:16:50;;;;;;;6.20;3.35;;;29.30;52.90;;;;;;5019312;28;20433;-80
2022/06/20 06:19:37;;;;;;;7.70;3.92;;;29.30;53.10;;;;;;5006715;28;20461;-90
2022/06/20 06:22:08;;;;;;;6.20;3.80;;;28.70;52.50;;;;;;5024173;28;20135;-82
2022/06/20 06:24:40;;;;;;;6.90;3.67;;;28.00;52.70;;;;;;5018680;28;20033;-83
2022/06/20 06:27:34;;;;;;;7.72;3.78;;;27.20;52.90;;;;;;5036731;28;20021;-81
2022/06/20 06:30:07;;;;;;;4.65;3.55;;;26.90;54.50;;;;;;5017396;28;20038;-85
2022/06/20 06:33:10;;;;;;;9.90;3.90;;;27.60;53.80;;;;;;5018843;28;20099;-85
2022/06/20 06:35:42;;;;;;;5.00;3.85;;;28.20;54.20;;;;;;4976027;28;20090;-81
2022/06/20 06:38:19;;;;;;;5.40;3.53;;;28.30;53.70;;;;;;4962676;28;20034;-80
2022/06/20 06:40:51;;;;;;;8.68;4.10;;;28.70;53.10;;;;;;4943406;28;20465;-90
2022/06/20 06:43:21;;;;;;;7.55;3.90;;;28.50;53.30;;;;;;4968129;28;20034;-83
2022/06/20 06:45:49;;;;;;;6.57;4.25;;;28.10;54.20;;;;;;4961310;28;20045;-79
2022/06/20 06:48:23;;;;;;;5.28;3.75;;;28.40;55.50;;;;;;4957788;28;20042;-82
2022/06/20 06:51:02;;;;;;;7.68;3.80;;;28.60;54.00;;;;;;4939840;29;20394;-88
2022/06/20 06:53:42;;;;;;;8.68;4.05;;;28.50;53.80;;;;;;4961602;28;20486;-81
2022/06/20 06:56:34;;;;;;;13.63;4.35;;;29.30;54.70;;;;;;4958873;28;20478;-87
2022/06/20 06:59:24;;;;;;;6.88;3.97;;;30.20;52.80;;;;;;4958802;28;20085;-88
2022/06/20 07:01:53;;;;;;;7.40;4.07;;;30.80;51.20;;;;;;4961730;28;20398;-76
2022/06/20 07:04:25;;;;;;;6.38;4.35;;;30.60;53.30;;;;;;4975506;28;20039;-80
2022/06/20 07:07:01;;;;;;;7.10;3.85;;;30.50;52.50;;;;;;4975627;28;20042;-84
2022/06/20 07:09:35;;;;;;;5.57;4.10;;;30.60;52.00;;;;;;4959239;28;20027;-87
2022/06/20 07:12:38;;;;;;;5.25;3.83;;;30.40;53.20;;;;;;5028745;28;20064;-81
2022/06/20 07:15:20;;;;;;;7.95;4.03;;;30.90;52.80;;;;;;5018512;28;20040;-78
2022/06/20 07:17:56;;;;;;;5.60;4.03;;;30.00;51.90;;;;;;5019309;28;20392;-79
2022/06/20 07:20:27;;;;;;;6.25;3.97;;;29.40;53.20;;;;;;5018235;28;20440;-86
2022/06/20 07:22:53;;;;;;;7.07;3.92;;;29.10;53.90;;;;;;5018692;28;20120;-87
2022/06/20 07:25:34;;;;;;;6.20;4.03;;;29.30;53.50;;;;;;5017737;28;20404;-78
2022/06/20 07:28:12;;;;;;;8.63;4.28;;;30.00;53.80;;;;;;5017653;28;20022;-79
2022/06/20 07:30:55;;;;;;;6.38;4.28;;;30.70;52.00;;;;;;5017803;28;20037;-88
2022/06/20 07:33:36;;;;;;;6.60;4.07;;;30.90;51.70;;;;;;5017689;28;20555;-78
2022/06/20 07:36:07;;;;;;;8.15;4.30;;;31.00;51.80;;;;;;5035574;28;20068;-79
2022/06/20 07:38:39;;;;;;;;;;;30.90;53.30;;;;;;5035328;28;20036;-76
2022/06/20 07:41:13;;;;;;;8.63;4.13;;;31.40;52.30;;;;;;5034685;28;19960;-80
2022/06/20 07:44:00;;;;;;;8.48;4.40;;;32.00;51.90;;;;;;5034443;28;20069;-78
2022/06/20 07:46:34;;;;;;;6.68;3.97;;;32.40;52.00;;;;;;5051186;28;20029;-82
2022/06/20 07:49:06;;;;;;;6.60;4.25;;;32.20;51.00;;;;;;5034990;28;20563;-80
2022/06/20 07:51:40;;;;;;;5.97;3.90;;;31.90;51.70;;;;;;5035202;28;20018;-85
2022/06/20 07:54:26;;;;;;;7.28;4.28;;;31.70;51.30;;;;;;5035005;28;20029;-86
2022/06/20 07:57:02;;;;;;;6.43;4.20;;;31.90;51.80;;;;;;5017493;28;20044;-87
2022/06/20 07:59:36;;;;;;;7.95;4.35;;;32.30;51.40;;;;;;5034826;28;20021;-83
2022/06/20 08:02:21;;;;;;;10.10;4.57;;;32.50;51.20;;;;;;5018432;28;20044;-87
2022/06/20 08:04:52;;;;;;;7.65;4.25;;;32.60;50.30;;;;;;5034707;28;20022;-81
2022/06/20 08:07:41;;;;;;;7.13;4.20;;;32.30;51.10;;;;;;5035577;28;20017;-81
2022/06/20 08:10:27;;;;;;;7.35;4.18;;;31.60;51.80;;;;;;5016898;28;20034;-83
2022/06/20 08:13:02;;;;;;;7.28;4.10;;;32.00;52.00;;;;;;5017337;28;20033;-86
2022/06/20 08:15:33;;;;;;;8.90;4.30;;;32.20;51.70;;;;;;5017931;28;20092;-80
2022/06/20 08:17:59;;;;;;;;;;;32.00;51.60;;;;;;5017801;28;20115;-84
2022/06/20 08:20:30;;;;;;;5.28;4.10;;;31.80;51.70;;;;;;5034922;28;19913;-84
2022/06/20 08:22:55;;;;;;;7.13;4.28;;;31.60;52.50;;;;;;5018383;28;20029;-85
2022/06/20 08:25:34;;;;;;;6.97;3.80;;;32.00;51.50;;;;;;5017796;28;20071;-87
2022/06/20 08:28:17;;;;;;;7.53;3.85;;;32.70;52.10;;;;;;5017608;28;20017;-88
2022/06/20 08:30:58;;;;;;;7.50;4.30;;;33.10;50.90;;;;;;5017006;28;20033;-89
2022/06/20 08:33:24;;;;;;;6.57;4.28;;;33.50;50.40;;;;;;5016764;28;20493;-91
2022/06/20 08:36:10;;;;;;;8.15;4.60;;;33.60;51.20;;;;;;5016426;28;20040;-81
2022/06/20 08:38:58;;;;;;;8.32;4.65;;;33.90;50.40;;;;;;5017130;28;20029;-80
2022/06/20 08:41:51;;;;;;;9.07;4.65;;;34.00;51.40;;;;;;5034220;28;20083;-82
2022/06/20 08:44:44;;;;;;;5.50;4.43;;;34.40;50.70;;;;;;5016332;28;20056;-84
2022/06/20 08:47:43;;;;;;;6.78;4.30;;;34.20;50.20;;;;;;5034787;28;20026;-92
2022/06/20 08:50:27;;;;;;;6.68;4.35;;;33.90;50.40;;;;;;5016924;28;20396;-85
2022/06/20 08:53:35;;;;;;;9.65;4.60;;;33.70;50.60;;;;;;5016819;28;20096;-81
2022/06/20 08:56:11;;;;;;;7.22;4.43;;;33.80;49.90;;;;;;5017153;28;20383;-87
2022/06/20 08:59:02;;;;;;;12.13;4.63;;;33.60;50.60;;;;;;5017493;28;20030;-91
2022/06/20 09:01:39;;;;;;;6.25;4.63;;;34.00;51.40;;;;;;5016481;28;20033;-81
2022/06/20 09:04:30;;;;;;;6.05;4.43;;;33.70;49.60;;;;;;5034601;28;20025;-80
2022/06/20 09:07:02;;;;;;;6.13;4.65;;;33.40;50.20;;;;;;5016541;28;20038;-83
2022/06/20 09:09:49;;;;;;;7.07;4.43;;;33.40;50.90;;;;;;5034291;28;20021;-81
2022/06/20 09:12:31;;;;;;;8.27;4.55;;;33.10;50.60;;;;;;5034923;28;20029;-85
2022/06/20 09:15:06;;;;;;;6.57;4.78;;;33.30;51.20;;;;;;5016710;28;20028;-83
2022/06/20 09:17:48;;;;;;;7.78;5.03;;;33.50;50.60;;;;;;5016183;28;20034;-80
2022/06/20 09:20:30;;;;;;;6.28;4.70;;;33.30;50.20;;;;;;5016087;28;20039;-85
2022/06/20 09:23:23;;;;;;;10.23;5.07;;;33.50;50.30;;;;;;5015965;28;20124;-81
2022/06/20 09:26:17;;;;;;;7.28;4.65;;;33.40;50.40;;;;;;5016124;28;20521;-83
2022/06/20 09:29:12;;;;;;;7.30;5.07;;;33.40;50.00;;;;;;5034414;28;20047;-79
2022/06/20 09:31:56;;;;;;;7.40;4.90;;;33.80;50.10;;;;;;5016355;28;20091;-86
2022/06/20 09:34:40;;;;;;;7.47;4.82;;;34.20;50.90;;;;;;5033607;28;20025;-78
2022/06/20 09:37:25;;;;;;;10.55;5.63;;;34.30;48.70;;;;;;5016141;28;20080;-79
2022/06/20 09:40:15;;;;;;;9.38;5.07;;;34.50;49.40;;;;;;5015740;28;20029;-81
2022/06/20 09:42:58;;;;;;;6.47;4.82;;;34.40;48.80;;;;;;5033358;28;20100;-90
2022/06/20 09:45:32;;;;;;;13.45;5.45;;;33.80;50.70;;;;;;5049076;28;20099;-80
2022/06/20 09:48:06;;;;;;;6.85;5.00;;;33.70;49.90;;;;;;5038436;28;20024;-89
2022/06/20 09:50:38;;;;;;;12.60;5.47;;;34.20;49.60;;;;;;5020599;28;20069;-78
2022/06/20 09:53:40;;;;;;;5.47;4.50;;;34.20;49.00;;;;;;5019812;28;20484;-84
2022/06/20 09:56:41;;;;;;;10.70;5.07;;;34.00;49.40;;;;;;5020052;28;20021;-84
2022/06/20 09:59:27;;;;;;;7.35;4.90;;;34.70;50.80;;;;;;5037850;28;20017;-79
2022/06/20 10:02:20;;;;;;;8.82;5.30;;;35.10;48.60;;;;;;5037141;28;20404;-81
2022/06/20 10:05:13;;;;;;;9.32;5.22;;;34.70;48.50;;;;;;5020449;28;20547;-90
2022/06/20 10:07:58;;;;;;;6.07;4.80;;;34.70;48.40;;;;;;5037921;28;20079;-82
2022/06/20 10:10:43;;;;;;;8.93;4.60;;;35.20;48.30;;;;;;5020140;28;20036;-91
2022/06/20 10:13:59;;;;;;;6.47;4.45;;;35.00;48.40;;;;;;5037677;28;20026;-85
2022/06/20 10:16:51;;;;;;;7.20;4.63;;;35.10;47.80;;;;;;4976675;28;20043;-81
2022/06/20 10:19:34;;;;;;;6.82;5.03;;;35.00;48.50;;;;;;4960021;28;20359;-79
2022/06/20 10:22:13;;;;;;;6.30;4.88;;;34.80;47.60;;;;;;4960020;28;20073;-77
2022/06/20 10:25:16;;;;;;;5.95;4.75;;;34.50;48.20;;;;;;4978404;28;20064;-87
2022/06/20 10:27:56;;;;;;;14.05;5.35;;;35.20;48.30;;;;;;4976594;28;20074;-85
2022/06/20 10:30:44;;;;;;;5.72;4.78;;;35.40;47.90;;;;;;4976028;28;20062;-84
2022/06/20 10:33:46;;;;;;;6.15;5.18;;;35.40;47.50;;;;;;4975671;28;20043;-80
2022/06/20 10:36:25;;;;;;;6.65;4.80;;;35.40;48.30;;;;;;4975140;28;20073;-84
2022/06/20 10:39:07;;;;;;;8.55;5.28;;;35.20;47.80;;;;;;4976011;28;20436;-80
2022/06/20 10:41:39;;;;;;;7.88;5.43;;;35.60;47.60;;;;;;4959327;28;20513;-82
2022/06/20 10:44:10;;;;;;;8.98;4.60;;;35.90;48.10;;;;;;4975837;28;20371;-85
2022/06/20 10:46:47;;;;;;;7.32;5.20;;;36.30;48.00;;;;;;4975610;28;20038;-83
2022/06/20 10:49:47;;;;;;;9.10;5.32;;;35.80;47.50;;;;;;4959826;28;20027;-84
2022/06/20 10:52:16;;;;;;;9.82;4.97;;;35.60;48.30;;;;;;5007633;28;20061;-82
2022/06/20 10:55:25;;;;;;;8.75;5.10;;;35.80;48.20;;;;;;5018630;28;20037;-80
2022/06/20 10:58:09;;;;;;;11.60;5.38;;;35.60;48.20;;;;;;5018363;28;20027;-77
2022/06/20 11:00:42;;;;;;;7.43;5.10;;;35.90;47.30;;;;;;5036292;28;20033;-84
2022/06/20 11:03:52;;;;;;;6.75;5.53;;;36.10;47.60;;;;;;5018883;28;20482;-85
2022/06/20 11:06:58;;;;;;;8.15;5.00;;;35.80;47.70;;;;;;4975058;28;20086;-84
2022/06/20 11:09:37;;;;;;;8.45;4.50;;;36.00;49.30;;;;;;4958843;28;20042;-81
2022/06/20 11:12:16;;;;;;;8.40;4.90;;;35.50;47.70;;;;;;4975313;28;20486;-85
2022/06/20 11:15:08;;;;;;;6.57;4.75;;;36.10;47.10;;;;;;4975213;28;20023;-82
2022/06/20 11:17:49;;;;;;;10.18;5.40;;;36.80;46.90;;;;;;4958703;28;20031;-85
2022/06/20 11:31:36;;;;;;;6.90;4.43;;;36.50;47.20;;;;;;5104779;27;1385832;-83
2022/06/20 11:34:39;;;;;;;7.10;4.63;;;37.40;46.80;;;;;;5133930;27;20134;-89
2022/06/20 11:37:28;;;;;;;5.43;4.43;;;37.60;46.90;;;;;;5133969;27;20016;-82
2022/06/20 11:40:14;;;;;;;9.45;4.63;;;37.70;46.90;;;;;;5135169;27;20041;-87
2022/06/20 11:43:02;;;;;;;13.10;4.88;;;37.80;46.00;;;;;;5134096;27;20030;-91
2022/06/20 11:46:07;;;;;;;11.40;4.60;;;38.00;45.60;;;;;;5153115;27;20023;-85
2022/06/20 11:48:59;;;;;;;5.10;4.57;;;37.60;45.70;;;;;;5152177;27;20251;-82
2022/06/20 11:51:53;;;;;;;10.10;4.43;;;37.80;46.70;;;;;;5133339;27;20023;-80
2022/06/20 11:54:45;;;;;;;6.25;4.60;;;38.30;46.20;;;;;;5133485;27;20058;-82
2022/06/20 11:57:19;;;;;;;7.63;4.50;;;37.90;45.70;;;;;;5133926;27;20023;-92
2022/06/20 11:59:54;;;;;;;7.00;4.60;;;37.20;46.00;;;;;;5134377;27;20105;-89
2022/06/20 12:02:19;;;;;;;6.80;4.72;;;37.60;45.90;;;;;;5151886;27;20094;-82
2022/06/20 12:05:01;;;;;;;6.68;4.60;;;38.10;46.00;;;;;;5152144;27;20144;-85
2022/06/20 12:08:00;;;;;;;5.88;4.40;;;38.10;45.70;;;;;;5151929;27;20352;-89
2022/06/20 12:10:34;;;;;;;6.25;4.60;;;37.60;45.40;;;;;;5133048;27;20031;-85
2022/06/20 12:13:37;;;;;;;7.22;4.38;;;38.00;46.10;;;;;;5134170;27;20062;-83
2022/06/20 12:16:14;;;;;;;10.32;4.43;;;38.50;46.00;;;;;;5134294;27;20027;-90
2022/06/20 12:24:40;;;;;;;5.93;3.80;;;37.50;44.40;;;;;;5152413;27;20382;-91
2022/06/20 12:27:12;;;;;;;5.03;4.03;;;37.30;45.40;;;;;;5151887;27;20050;-86
2022/06/20 12:29:37;;;;;;;6.22;4.22;;;37.50;43.70;;;;;;5133134;27;20050;-92
2022/06/20 12:32:12;;;;;;;7.53;4.20;;;37.00;43.80;;;;;;5120561;27;20023;-87
2022/06/20 12:34:47;;;;;;;5.80;4.18;;;37.10;44.90;;;;;;5119861;27;20578;-82
2022/06/20 12:37:43;;;;;;;9.25;4.30;;;37.60;45.90;;;;;;5119275;27;20019;-87
2022/06/20 12:40:18;;;;;;;5.50;3.88;;;37.60;42.70;;;;;;5118869;27;20035;-82
2022/06/20 12:42:47;;;;;;;5.03;4.00;;;37.00;44.70;;;;;;5119440;27;20031;-83
2022/06/20 12:45:34;;;;;;;6.88;3.88;;;36.90;43.20;;;;;;5118739;27;20023;-83
2022/06/20 12:48:25;;;;;;;5.40;3.88;;;36.30;43.90;;;;;;5137445;27;20031;-79
2022/06/20 12:51:00;;;;;;;4.82;3.80;;;36.30;45.00;;;;;;5120395;27;20092;-85
2022/06/20 12:53:41;;;;;;;5.88;3.90;;;36.90;42.80;;;;;;5120349;27;20023;-89
2022/06/20 12:56:16;;;;;;;6.32;3.50;;;36.90;42.70;;;;;;5136968;27;20031;-85
2022/06/20 12:59:01;;;;;;;8.52;3.88;;;36.80;43.40;;;;;;5138343;27;20023;-87
2022/06/20 13:01:33;;;;;;;6.32;3.72;;;36.60;43.20;;;;;;5137121;27;20070;-88
2022/06/20 13:04:33;;;;;;;4.72;3.50;;;36.50;43.70;;;;;;5137155;27;20046;-86
2022/06/20 13:07:23;;;;;;;4.75;3.53;;;36.60;43.00;;;;;;5132237;27;20030;-90
2022/06/20 13:09:51;;;;;;;5.63;3.92;;;36.50;44.20;;;;;;5119332;27;20131;-90
2022/06/20 13:12:37;;;;;;;6.60;3.65;;;37.10;44.40;;;;;;5119672;27;20454;-89
2022/06/20 13:15:31;;;;;;;7.70;3.95;;;37.50;44.00;;;;;;5137130;27;20020;-85
2022/06/20 13:18:19;;;;;;;6.60;3.88;;;37.40;43.90;;;;;;5137190;27;20091;-88
2022/06/20 13:21:09;;;;;;;4.22;3.20;;;37.90;43.50;;;;;;4780269;27;9999725;-83
2022/06/20 13:24:03;;;;;;;6.95;3.60;;;38.10;44.00;;;;;;5116811;27;20038;-84
2022/06/20 13:26:50;;;;;;;5.75;3.38;;;38.50;43.60;;;;;;5118667;27;20034;-81
2022/06/20 13:29:19;;;;;;;4.97;3.60;;;38.60;43.60;;;;;;5118093;27;20470;-85
2022/06/20 13:31:51;;;;;;;6.40;3.60;;;38.10;42.80;;;;;;5118001;27;20072;-85
2022/06/20 13:34:36;;;;;;;5.05;4.05;;;38.20;43.00;;;;;;5117948;27;20031;-81
2022/06/20 13:37:43;;;;;;;6.47;3.90;;;38.40;43.00;;;;;;5136105;27;20466;-80
2022/06/20 13:40:33;;;;;;;8.02;4.10;;;38.30;43.70;;;;;;5135520;27;20134;-83
2022/06/20 13:43:17;;;;;;;;;;;38.40;43.80;;;;;;5135643;27;20024;-82
2022/06/20 13:45:49;;;;;;;5.93;3.40;;;38.50;44.20;;;;;;5117644;27;19926;-86
2022/06/20 13:48:40;;;;;;;6.88;3.78;;;38.70;43.50;;;;;;5117743;27;20027;-82
2022/06/20 13:51:36;;;;;;;7.30;3.67;;;39.00;43.80;;;;;;5117292;27;20023;-80
2022/06/20 13:54:34;;;;;;;7.45;3.92;;;39.00;42.60;;;;;;5135545;27;20023;-79
2022/06/20 13:57:03;;;;;;;6.80;3.65;;;38.80;43.10;;;;;;5117388;27;20023;-83
2022/06/20 14:00:04;;;;;;;6.55;3.63;;;38.80;42.90;;;;;;5117023;27;20114;-85
2022/06/20 14:02:35;;;;;;;6.93;3.90;;;38.80;42.50;;;;;;5117331;27;20114;-82
2022/06/20 14:05:34;;;;;;;8.60;4.10;;;38.60;43.30;;;;;;5116775;27;20019;-83
2022/06/20 14:08:26;;;;;;;5.85;4.28;;;38.60;43.00;;;;;;5129726;27;20046;-83
2022/06/20 14:10:59;;;;;;;7.38;4.07;;;38.60;42.90;;;;;;5117058;27;20483;-83
2022/06/20 14:13:30;;;;;;;6.85;3.90;;;38.70;42.90;;;;;;5116945;27;20024;-82
2022/06/20 14:16:35;;;;;;;7.57;3.75;;;38.80;42.70;;;;;;5116934;27;20084;-82